Terminal Aerodrome Forecast
Issued by NWS

Home | Current Version | Previous Version | Text Only | Print | Product List | Glossary On
Versions: 1 2 3 4 5 6 7 8 9 10 11 12 13 14 15 16 17
000
FTPA31 PHFO 301639 AAA
TAFHTO
TAF AMD
PHTO 301639Z 3017/0112 VRB06KT P6SM SHRA VCTS SCT015CB BKN035
      BKN060
     FM302000 14011G18KT P6SM VCSH SCT020 BKN035
     FM010500 13006KT P6SM VCSH SCT025 BKN040=

USA.gov is the U.S. government's official web portal to all federal, state and local government web resources and services.